createdAt,value
2023-03-04T00:01:00.771Z,2.1
2023-03-04T00:06:00.948Z,2.1
2023-03-04T00:11:01.182Z,2.3
2023-03-04T00:16:01.361Z,2.3
2023-03-04T00:21:00.656Z,2.2
2023-03-04T00:26:00.805Z,2.2
2023-03-04T00:31:00.801Z,2
2023-03-04T00:36:00.274Z,2
2023-03-04T00:41:00.519Z,2.2
2023-03-04T00:46:00.788Z,2.2
2023-03-04T00:51:01.161Z,2.2
2023-03-04T00:56:00.446Z,2.2
2023-03-04T01:01:00.454Z,1.8
2023-03-04T01:06:00.956Z,1.8
2023-03-04T01:11:04.028Z,1.8
2023-03-04T01:16:00.350Z,1.8
2023-03-04T01:21:00.541Z,1.8
2023-03-04T01:26:00.816Z,1.8
2023-03-04T01:31:03.750Z,1.4
2023-03-04T01:36:01.066Z,1.4
2023-03-04T01:41:00.422Z,1.3
2023-03-04T01:46:00.728Z,1.3
2023-03-04T01:51:01.144Z,2
2023-03-04T01:56:00.396Z,2
2023-03-04T02:01:00.660Z,2.2
2023-03-04T02:06:00.247Z,2.2
2023-03-04T02:11:00.785Z,2.7
2023-03-04T02:16:00.956Z,2.7
2023-03-04T02:21:00.418Z,2.2
2023-03-04T02:26:00.757Z,2.2
2023-03-04T02:31:01.061Z,2.2
2023-03-04T02:36:00.272Z,2.2
2023-03-04T02:41:01.039Z,2.6
2023-03-04T02:46:00.353Z,2.6
2023-03-04T02:51:00.643Z,2.2
2023-03-04T02:56:00.845Z,2.2
2023-03-04T03:01:00.340Z,2.2
2023-03-04T03:06:01.112Z,2.2
2023-03-04T03:11:00.428Z,2.4
2023-03-04T03:16:00.441Z,2.4
2023-03-04T03:21:00.784Z,2.3
2023-03-04T03:26:01.230Z,2.3
2023-03-04T03:36:00.728Z,1.9
2023-03-04T03:41:01.125Z,2.2
2023-03-04T03:46:00.733Z,2.2
2023-03-04T03:51:00.919Z,2.1
2023-03-04T03:56:00.929Z,2.1
2023-03-04T04:01:00.806Z,1.7
2023-03-04T04:06:00.592Z,1.7
2023-03-04T04:11:00.424Z,3
2023-03-04T04:16:00.980Z,3
2023-03-04T04:21:00.655Z,1.8
2023-03-04T04:26:00.869Z,1.8
2023-03-04T04:31:01.055Z,1.8
2023-03-04T04:36:00.924Z,1.8
2023-03-04T04:41:00.744Z,2
2023-03-04T04:46:01.134Z,2
2023-03-04T04:51:00.447Z,2.5
2023-03-04T04:56:01.240Z,2.5
2023-03-04T05:01:00.548Z,2.2
2023-03-04T05:06:01.162Z,2.2
2023-03-04T05:11:00.628Z,2
2023-03-04T05:16:00.851Z,2
2023-03-04T05:21:01.281Z,2.2
2023-03-04T05:26:00.552Z,2.2
2023-03-04T05:31:00.825Z,3.3
2023-03-04T05:36:01.219Z,3.3
2023-03-04T05:41:00.730Z,3.5
2023-03-04T05:46:00.974Z,3.5
2023-03-04T05:51:01.366Z,3.8
2023-03-04T05:56:00.614Z,3.8
2023-03-04T06:01:00.921Z,2.7
2023-03-04T06:06:01.182Z,2.7
2023-03-04T06:11:00.814Z,3.1
2023-03-04T06:16:01.022Z,3.1
2023-03-04T06:21:00.425Z,3.6
2023-03-04T06:26:00.598Z,3.6
2023-03-04T06:31:00.766Z,2.6
2023-03-04T06:36:01.032Z,2.6
2023-03-04T06:41:00.984Z,1.8
2023-03-04T06:46:01.137Z,1.8
2023-03-04T06:51:00.434Z,1.3
2023-03-04T06:56:00.598Z,1.3
2023-03-04T07:01:00.812Z,1.3
2023-03-04T07:06:01.198Z,1.3
2023-03-04T07:11:00.459Z,1.3
2023-03-04T07:16:00.880Z,1.3
2023-03-04T07:21:01.292Z,1.3
2023-03-04T07:26:00.462Z,1.3
2023-03-04T07:31:00.710Z,1.3
2023-03-04T07:36:00.848Z,1.3
2023-03-04T07:41:01.032Z,1.3
2023-03-04T07:46:01.254Z,1.3
2023-03-04T07:51:00.634Z,1.3
